createdAt,value
2022-12-31T00:00:45.974Z,5.30
2022-12-31T00:03:17.608Z,5.30
2022-12-31T00:05:46.719Z,5.30
2022-12-31T00:08:15.664Z,5.40
2022-12-31T00:10:42.501Z,5.40
2022-12-31T00:13:12.327Z,5.30
2022-12-31T00:15:40.031Z,5.30
2022-12-31T00:18:07.004Z,5.30
2022-12-31T00:20:33.886Z,5.30
2022-12-31T00:23:02.915Z,5.30
2022-12-31T00:25:31.967Z,5.20
2022-12-31T00:27:58.715Z,5.20
2022-12-31T00:30:25.491Z,5.20
2022-12-31T00:32:52.287Z,5.20
2022-12-31T00:35:19.038Z,5.10
2022-12-31T00:37:45.903Z,5.10
2022-12-31T00:40:12.749Z,5.10
2022-12-31T00:42:39.509Z,5.10
2022-12-31T00:45:06.819Z,5.00
2022-12-31T00:47:33.604Z,5.00
2022-12-31T00:50:00.375Z,5.00
2022-12-31T00:52:29.274Z,5.00
2022-12-31T00:54:57.873Z,5.00
2022-12-31T00:57:24.698Z,5.00
2022-12-31T00:59:53.745Z,4.90
2022-12-31T01:02:20.684Z,4.90
2022-12-31T01:04:47.675Z,4.90
2022-12-31T01:07:16.901Z,5.00
2022-12-31T01:09:43.749Z,4.90
2022-12-31T01:12:13.081Z,5.00
2022-12-31T01:14:42.064Z,5.00
2022-12-31T01:17:08.984Z,5.00
2022-12-31T01:19:35.732Z,5.00
2022-12-31T01:22:05.859Z,4.90
2022-12-31T01:24:35.529Z,5.00
2022-12-31T01:27:04.812Z,5.00
2022-12-31T01:29:31.624Z,5.00
2022-12-31T01:32:00.573Z,5.00
2022-12-31T01:34:27.511Z,5.00
2022-12-31T01:36:54.389Z,5.00
2022-12-31T01:39:21.147Z,5.00
2022-12-31T01:41:48.048Z,5.10
2022-12-31T01:44:23.901Z,5.10
2022-12-31T01:46:55.203Z,5.10
2022-12-31T01:49:41.030Z,5.20
2022-12-31T01:52:13.055Z,5.20
2022-12-31T01:54:42.573Z,5.20
2022-12-31T01:57:09.336Z,5.10
2022-12-31T01:59:38.596Z,5.30
2022-12-31T02:02:05.454Z,5.20
2022-12-31T02:04:32.581Z,5.20
2022-12-31T02:07:04.165Z,5.20
2022-12-31T02:09:31.104Z,5.30
2022-12-31T02:11:57.901Z,5.30
2022-12-31T02:14:29.180Z,5.30
2022-12-31T02:17:02.095Z,5.20
2022-12-31T02:19:52.664Z,5.30
2022-12-31T02:22:46.951Z,5.30
2022-12-31T02:25:32.259Z,5.30
2022-12-31T02:28:26.219Z,5.40
2022-12-31T02:30:56.756Z,5.40
2022-12-31T02:33:32.875Z,5.40
2022-12-31T02:36:26.522Z,5.40
2022-12-31T02:38:55.753Z,5.50
2022-12-31T02:41:43.586Z,5.50
2022-12-31T02:44:26.377Z,5.50
2022-12-31T02:47:08.262Z,5.50
2022-12-31T02:50:25.183Z,5.50
2022-12-31T02:53:07.791Z,5.60
2022-12-31T02:55:43.433Z,5.60
2022-12-31T02:58:49.945Z,5.60
2022-12-31T03:01:38.830Z,5.70
2022-12-31T03:04:24.149Z,5.60
2022-12-31T03:06:51.425Z,5.60
2022-12-31T03:09:18.270Z,5.60
2022-12-31T03:12:03.462Z,5.60
2022-12-31T03:14:30.274Z,5.70
2022-12-31T03:16:57.035Z,5.70
2022-12-31T03:19:42.263Z,5.70
2022-12-31T03:22:28.236Z,5.70
2022-12-31T03:25:22.225Z,5.70
2022-12-31T03:27:49.077Z,5.70
2022-12-31T03:30:19.230Z,5.70
2022-12-31T03:32:48.260Z,5.80
2022-12-31T03:35:15.670Z,5.80
2022-12-31T03:37:42.554Z,5.60
2022-12-31T03:40:10.349Z,5.70
2022-12-31T03:42:39.313Z,5.60
2022-12-31T03:45:06.618Z,5.60
2022-12-31T03:47:33.432Z,5.60
2022-12-31T03:50:00.218Z,5.60
2022-12-31T03:52:27.023Z,5.60
2022-12-31T03:54:53.832Z,5.70
2022-12-31T03:57:20.668Z,5.70
2022-12-31T03:59:47.418Z,5.70
2022-12-31T04:02:14.379Z,5.60
2022-12-31T04:04:41.294Z,5.60
2022-12-31T04:07:08.117Z,5.70
2022-12-31T04:09:34.872Z,5.70
2022-12-31T04:12:01.689Z,5.80
2022-12-31T04:14:28.477Z,5.80
2022-12-31T04:16:55.403Z,5.80
2022-12-31T04:19:22.167Z,5.80
2022-12-31T04:21:49.355Z,5.90
2022-12-31T04:24:16.131Z,5.80
2022-12-31T04:26:45.228Z,5.90
2022-12-31T04:29:12.002Z,5.90
2022-12-31T04:31:38.825Z,5.90
2022-12-31T04:34:05.623Z,6.00
2022-12-31T04:36:32.395Z,6.10
2022-12-31T04:38:59.202Z,6.10
2022-12-31T04:41:27.174Z,6.10
2022-12-31T04:43:55.090Z,6.10
2022-12-31T04:46:29.826Z,6.10
2022-12-31T04:48:59.733Z,6.10
2022-12-31T04:51:27.097Z,6.10
2022-12-31T04:53:54.703Z,6.10
2022-12-31T04:56:21.560Z,6.10
2022-12-31T04:58:48.408Z,6.10
2022-12-31T05:01:15.373Z,6.10
2022-12-31T05:03:42.340Z,6.20
2022-12-31T05:06:20.630Z,6.10
2022-12-31T05:08:47.889Z,6.10
2022-12-31T05:11:17.245Z,6.00
2022-12-31T05:13:46.357Z,6.00
2022-12-31T05:16:15.286Z,6.10
2022-12-31T05:18:44.471Z,6.20
2022-12-31T05:21:19.439Z,6.20
2022-12-31T05:23:48.383Z,6.20
2022-12-31T05:26:15.370Z,6.30
2022-12-31T05:28:42.232Z,6.40
2022-12-31T05:31:09.085Z,6.40
2022-12-31T05:33:36.322Z,6.40
2022-12-31T05:36:03.316Z,6.40
2022-12-31T05:38:30.082Z,6.40
2022-12-31T05:41:04.075Z,6.30
2022-12-31T05:43:33.060Z,6.30
2022-12-31T05:46:03.785Z,6.30
2022-12-31T05:48:30.886Z,6.30
2022-12-31T05:50:57.740Z,6.40
2022-12-31T05:53:24.538Z,6.40
2022-12-31T05:55:51.347Z,6.50
2022-12-31T05:58:18.171Z,6.60
2022-12-31T06:00:47.211Z,6.60
2022-12-31T06:03:14.149Z,6.70
2022-12-31T06:05:45.630Z,6.70
2022-12-31T06:08:12.633Z,6.80
2022-12-31T06:10:39.812Z,6.80
2022-12-31T06:13:11.417Z,6.80
2022-12-31T06:15:39.820Z,6.90
2022-12-31T06:18:11.343Z,6.90
2022-12-31T06:20:38.317Z,7.00
2022-12-31T06:23:05.652Z,7.00
2022-12-31T06:25:37.231Z,7.10
2022-12-31T06:28:05.018Z,7.10
2022-12-31T06:30:32.080Z,7.10
2022-12-31T06:32:58.882Z,7.10
2022-12-31T06:35:25.688Z,7.10
2022-12-31T06:37:57.178Z,7.10
2022-12-31T06:40:23.995Z,7.20
2022-12-31T06:42:59.512Z,7.20
2022-12-31T06:45:26.823Z,7.30
2022-12-31T06:47:53.963Z,7.30
2022-12-31T06:50:23.174Z,7.30
2022-12-31T06:52:49.923Z,7.30
2022-12-31T06:55:16.997Z,7.30
2022-12-31T06:57:46.147Z,7.30
2022-12-31T07:00:13.650Z,7.30
2022-12-31T07:03:04.922Z,7.30
2022-12-31T07:05:52.839Z,7.20
2022-12-31T07:08:21.783Z,7.30
2022-12-31T07:10:54.539Z,7.30
2022-12-31T07:13:43.229Z,7.40
2022-12-31T07:16:35.864Z,7.30
2022-12-31T07:19:20.844Z,7.30
2022-12-31T07:21:47.903Z,7.30
2022-12-31T07:24:15.283Z,7.40
2022-12-31T07:26:57.279Z,7.40
2022-12-31T07:29:47.575Z,7.40
2022-12-31T07:32:39.840Z,7.50
2022-12-31T07:35:25.562Z,7.50
2022-12-31T07:38:13.573Z,7.60
2022-12-31T07:40:51.431Z,7.60
2022-12-31T07:43:47.629Z,7.70
2022-12-31T07:46:48.602Z,7.70
2022-12-31T07:49:15.823Z,7.70
2022-12-31T07:51:43.321Z,7.80
2022-12-31T07:54:14.371Z,7.80
2022-12-31T07:56:44.207Z,7.80
2022-12-31T07:59:28.940Z,7.90
2022-12-31T08:02:15.481Z,7.90
2022-12-31T08:04:48.338Z,7.90
2022-12-31T08:07:31.639Z,8.00
2022-12-31T08:10:17.713Z,8.00
2022-12-31T08:12:45.515Z,8.00
2022-12-31T08:15:17.146Z,8.00
2022-12-31T08:17:44.261Z,8.10
2022-12-31T08:20:17.252Z,8.10
2022-12-31T08:23:05.721Z,8.10
2022-12-31T08:26:03.984Z,8.10
2022-12-31T08:28:55.467Z,8.20
2022-12-31T08:31:31.404Z,8.20
2022-12-31T08:34:07.759Z,8.20
2022-12-31T08:37:12.228Z,8.30
2022-12-31T08:40:12.947Z,8.30
2022-12-31T08:43:10.373Z,8.40
2022-12-31T08:45:52.981Z,8.50
2022-12-31T08:48:42.336Z,8.50
2022-12-31T08:51:14.633Z,8.50
2022-12-31T08:53:43.925Z,8.60
2022-12-31T08:56:22.498Z,8.60
2022-12-31T08:58:53.239Z,8.70
2022-12-31T09:01:22.144Z,8.70
2022-12-31T09:04:36.265Z,8.80
2022-12-31T09:07:03.654Z,8.80
2022-12-31T09:09:46.079Z,8.90
2022-12-31T09:12:24.159Z,9.00
2022-12-31T09:15:03.310Z,9.10
2022-12-31T09:17:37.102Z,9.10
2022-12-31T09:20:12.660Z,9.10
2022-12-31T09:22:39.575Z,9.20
2022-12-31T09:25:06.917Z,9.30
2022-12-31T09:27:42.973Z,9.30
2022-12-31T09:30:13.505Z,9.30
2022-12-31T09:32:58.638Z,9.30
2022-12-31T09:35:36.014Z,9.30
2022-12-31T09:38:27.315Z,9.40
2022-12-31T09:41:17.193Z,9.40
2022-12-31T09:44:02.481Z,9.40
2022-12-31T09:46:54.204Z,9.40
2022-12-31T09:49:39.318Z,9.40
2022-12-31T09:52:09.177Z,9.40
2022-12-31T09:54:42.335Z,9.50
2022-12-31T09:57:17.871Z,9.40
2022-12-31T10:00:05.110Z,9.50
2022-12-31T10:03:00.715Z,9.50
2022-12-31T10:05:30.517Z,9.50
2022-12-31T10:08:03.186Z,9.60
2022-12-31T10:10:52.627Z,9.60
2022-12-31T10:13:28.208Z,9.70
2022-12-31T10:15:57.853Z,9.70
2022-12-31T10:18:54.347Z,9.70
2022-12-31T10:21:49.005Z,9.70
2022-12-31T10:24:42.917Z,9.80
2022-12-31T10:27:28.275Z,9.80
2022-12-31T10:30:20.172Z,9.90
2022-12-31T10:33:21.109Z,9.90
2022-12-31T10:35:54.424Z,10.00
2022-12-31T10:38:41.494Z,10.00
2022-12-31T10:41:23.278Z,10.10
2022-12-31T10:44:23.098Z,10.20
2022-12-31T10:47:14.800Z,10.20
2022-12-31T10:49:59.791Z,10.30
2022-12-31T10:53:13.959Z,10.30
2022-12-31T10:56:11.479Z,10.30
2022-12-31T10:59:02.007Z,10.40
2022-12-31T11:01:34.617Z,10.40
2022-12-31T11:04:20.504Z,10.50
2022-12-31T11:06:56.188Z,10.50
2022-12-31T11:09:35.019Z,10.60
2022-12-31T11:12:22.466Z,10.60
2022-12-31T11:15:34.502Z,10.60
2022-12-31T11:18:13.281Z,10.70
2022-12-31T11:21:13.444Z,10.80
2022-12-31T11:23:43.191Z,10.80
2022-12-31T11:26:27.876Z,10.90
2022-12-31T11:29:22.472Z,10.90
2022-12-31T11:31:52.372Z,11.00
2022-12-31T11:34:25.152Z,11.00
2022-12-31T11:37:10.787Z,11.00
2022-12-31T11:39:52.719Z,11.00
2022-12-31T11:42:41.093Z,11.00
2022-12-31T11:45:11.016Z,11.00
2022-12-31T11:48:29.830Z,11.10
2022-12-31T11:51:11.724Z,11.10
2022-12-31T11:53:50.531Z,11.10
2022-12-31T11:56:21.356Z,11.10
2022-12-31T11:58:52.466Z,11.20
2022-12-31T12:01:35.134Z,11.30
2022-12-31T12:04:02.031Z,11.20
2022-12-31T12:06:30.470Z,11.30
2022-12-31T12:09:01.812Z,11.30
2022-12-31T12:11:32.609Z,11.40
2022-12-31T12:14:01.588Z,11.40
2022-12-31T12:16:28.431Z,11.50
2022-12-31T12:19:05.267Z,11.50
2022-12-31T12:21:32.057Z,11.60
2022-12-31T12:24:01.655Z,11.60
2022-12-31T12:26:29.894Z,11.70
2022-12-31T12:29:00.112Z,11.80
2022-12-31T12:31:27.545Z,11.80
2022-12-31T12:33:54.378Z,11.80
2022-12-31T12:36:21.481Z,11.80
2022-12-31T12:38:48.347Z,11.70
2022-12-31T12:41:25.171Z,11.70
2022-12-31T12:44:05.498Z,11.70
2022-12-31T12:46:34.463Z,11.70
2022-12-31T12:49:04.134Z,11.60
2022-12-31T12:51:52.228Z,11.60
2022-12-31T12:54:43.718Z,11.50
2022-12-31T12:57:28.100Z,11.60
2022-12-31T13:00:15.205Z,11.60
2022-12-31T13:03:12.130Z,11.60
2022-12-31T13:05:54.387Z,11.60
2022-12-31T13:09:05.837Z,11.60
2022-12-31T13:11:54.056Z,11.60
2022-12-31T13:14:32.930Z,11.60
2022-12-31T13:17:12.686Z,11.50
2022-12-31T13:19:49.023Z,11.50
2022-12-31T13:22:38.155Z,11.50
2022-12-31T13:25:22.017Z,11.50
2022-12-31T13:27:50.856Z,11.50
2022-12-31T13:30:28.503Z,11.50
2022-12-31T13:33:19.633Z,11.50
2022-12-31T13:36:12.990Z,11.50
2022-12-31T13:38:53.785Z,11.50
2022-12-31T13:41:43.378Z,11.60
2022-12-31T13:44:50.029Z,11.60
2022-12-31T13:47:25.593Z,11.60
2022-12-31T13:50:01.170Z,11.70
2022-12-31T13:52:32.521Z,11.70
2022-12-31T13:55:37.282Z,11.80
2022-12-31T13:58:17.938Z,11.80
2022-12-31T14:00:52.703Z,11.80
2022-12-31T14:03:27.007Z,11.80
2022-12-31T14:06:11.236Z,11.80
2022-12-31T14:08:38.019Z,11.90
2022-12-31T14:11:10.204Z,11.90
2022-12-31T14:14:01.694Z,11.90
2022-12-31T14:16:36.819Z,11.90
2022-12-31T14:19:40.869Z,11.90
2022-12-31T14:22:37.259Z,12.00
2022-12-31T14:25:04.661Z,12.00
2022-12-31T14:27:40.504Z,12.00
2022-12-31T14:30:20.666Z,12.10
2022-12-31T14:33:09.589Z,12.10
2022-12-31T14:35:58.420Z,12.20
2022-12-31T14:38:47.087Z,12.20
2022-12-31T14:41:35.623Z,12.20
2022-12-31T14:44:20.340Z,12.30
2022-12-31T14:47:07.648Z,12.30
2022-12-31T14:50:01.335Z,12.30
2022-12-31T14:52:34.951Z,12.30
2022-12-31T14:55:10.557Z,12.40
2022-12-31T14:58:09.678Z,12.40
2022-12-31T15:00:29.552Z,12.40
2022-12-31T15:03:10.884Z,12.50
2022-12-31T15:05:38.071Z,12.50
2022-12-31T15:08:42.800Z,12.50
2022-12-31T15:11:41.903Z,12.60
2022-12-31T15:14:45.376Z,12.70
2022-12-31T15:17:40.305Z,12.70
2022-12-31T15:20:17.208Z,12.80
2022-12-31T15:22:47.886Z,12.80
2022-12-31T15:25:41.579Z,12.80
2022-12-31T15:28:23.213Z,12.90
2022-12-31T15:30:50.219Z,12.90
2022-12-31T15:33:39.262Z,12.90
2022-12-31T15:36:15.809Z,12.90
2022-12-31T15:38:44.925Z,12.90
2022-12-31T15:41:36.306Z,12.90
2022-12-31T15:44:19.060Z,13.00
2022-12-31T15:46:45.880Z,13.00
2022-12-31T15:49:23.143Z,13.10
2022-12-31T15:52:20.858Z,13.10
2022-12-31T15:54:51.641Z,13.20
2022-12-31T15:57:30.094Z,13.20
2022-12-31T16:00:01.069Z,13.20
2022-12-31T16:02:28.462Z,13.20
2022-12-31T16:04:55.454Z,13.20
2022-12-31T16:07:25.077Z,13.20
2022-12-31T16:09:56.558Z,13.30
2022-12-31T16:12:32.961Z,13.30
2022-12-31T16:15:01.186Z,13.40
2022-12-31T16:17:35.415Z,13.40
2022-12-31T16:20:20.358Z,13.40
2022-12-31T16:22:56.289Z,13.40
2022-12-31T16:25:31.977Z,13.40
2022-12-31T16:27:59.376Z,13.40
2022-12-31T16:30:29.626Z,13.40
2022-12-31T16:33:01.749Z,13.40
2022-12-31T16:35:33.428Z,13.40
2022-12-31T16:38:12.705Z,13.50
2022-12-31T16:41:04.393Z,13.50
2022-12-31T16:43:39.699Z,13.50
2022-12-31T16:46:28.873Z,13.50
2022-12-31T16:48:59.833Z,13.50
2022-12-31T16:51:29.646Z,13.50
2022-12-31T16:53:56.545Z,13.50
2022-12-31T16:56:34.591Z,13.50
2022-12-31T16:59:23.365Z,13.50
2022-12-31T17:01:51.063Z,13.50
2022-12-31T17:04:20.485Z,13.50
2022-12-31T17:06:47.801Z,13.50
2022-12-31T17:09:21.775Z,13.50
2022-12-31T17:11:51.478Z,13.50
2022-12-31T17:14:20.835Z,13.50
2022-12-31T17:17:04.144Z,13.60
2022-12-31T17:19:49.995Z,13.60
2022-12-31T17:22:36.536Z,13.60
2022-12-31T17:25:25.422Z,13.60
2022-12-31T17:28:02.971Z,13.60
2022-12-31T17:30:32.847Z,13.70
2022-12-31T17:33:03.600Z,13.70
2022-12-31T17:35:37.055Z,13.70
2022-12-31T17:38:22.337Z,13.70
2022-12-31T17:40:53.011Z,13.70
2022-12-31T17:43:21.347Z,13.60
2022-12-31T17:45:51.052Z,13.60
2022-12-31T17:48:18.779Z,13.60
2022-12-31T17:50:58.425Z,13.60
2022-12-31T17:53:25.201Z,13.60
2022-12-31T17:55:53.491Z,13.50
2022-12-31T17:58:48.543Z,13.50
2022-12-31T18:01:17.670Z,13.50
2022-12-31T18:03:44.976Z,13.40
2022-12-31T18:06:16.591Z,13.40
2022-12-31T18:08:46.512Z,13.40
2022-12-31T18:11:18.593Z,13.40
2022-12-31T18:13:45.509Z,13.40
2022-12-31T18:16:12.371Z,13.40
2022-12-31T18:18:41.001Z,13.40
2022-12-31T18:21:16.010Z,13.40
2022-12-31T18:23:46.664Z,13.40
2022-12-31T18:26:16.707Z,13.40
2022-12-31T18:28:43.564Z,13.40
2022-12-31T18:31:19.480Z,13.40
2022-12-31T18:33:51.035Z,13.50
2022-12-31T18:36:18.709Z,13.50
2022-12-31T18:38:45.481Z,13.50
2022-12-31T18:41:19.742Z,13.60
2022-12-31T18:43:46.677Z,13.50
2022-12-31T18:46:14.306Z,13.50
2022-12-31T18:48:41.586Z,13.50
2022-12-31T18:51:29.363Z,13.60
2022-12-31T18:53:58.892Z,13.60
2022-12-31T18:56:25.799Z,13.70
2022-12-31T18:58:52.662Z,13.70
2022-12-31T19:01:32.371Z,13.70
2022-12-31T19:04:00.936Z,13.70
2022-12-31T19:06:27.971Z,13.70
2022-12-31T19:08:59.130Z,13.70
2022-12-31T19:11:30.019Z,13.80
2022-12-31T19:13:56.765Z,13.80
2022-12-31T19:16:23.517Z,13.80
2022-12-31T19:18:50.898Z,13.80
2022-12-31T19:21:19.513Z,13.80
2022-12-31T19:23:46.552Z,13.80
2022-12-31T19:26:17.699Z,13.90
2022-12-31T19:28:45.252Z,13.90
2022-12-31T19:31:12.083Z,13.90
2022-12-31T19:33:39.114Z,14.00
2022-12-31T19:36:12.262Z,13.90
2022-12-31T19:38:39.027Z,13.90
2022-12-31T19:41:10.535Z,13.90
2022-12-31T19:43:39.479Z,13.90
2022-12-31T19:46:06.286Z,14.00
2022-12-31T19:48:33.268Z,13.90
2022-12-31T19:51:00.090Z,13.90
2022-12-31T19:53:29.599Z,13.90
2022-12-31T19:55:56.384Z,13.90
2022-12-31T19:58:26.150Z,13.90
2022-12-31T20:00:58.206Z,13.90
2022-12-31T20:03:28.801Z,13.90
2022-12-31T20:06:09.026Z,13.90
2022-12-31T20:08:36.612Z,13.90
2022-12-31T20:11:14.219Z,13.90
2022-12-31T20:13:41.190Z,13.90
2022-12-31T20:16:12.732Z,14.00
2022-12-31T20:18:39.939Z,14.00
2022-12-31T20:21:11.438Z,14.00
2022-12-31T20:23:38.282Z,13.90
2022-12-31T20:26:05.174Z,14.00
2022-12-31T20:28:31.966Z,13.90
2022-12-31T20:30:58.924Z,13.90
2022-12-31T20:33:30.467Z,13.90
2022-12-31T20:36:01.679Z,13.90
2022-12-31T20:38:28.499Z,13.90
2022-12-31T20:40:55.268Z,13.90
2022-12-31T20:43:22.002Z,13.80
2022-12-31T20:45:48.893Z,13.80
2022-12-31T20:48:15.688Z,13.80
2022-12-31T20:50:44.694Z,13.80
2022-12-31T20:53:11.512Z,13.80
2022-12-31T20:55:38.331Z,13.80
2022-12-31T20:58:07.568Z,13.80
2022-12-31T21:00:34.342Z,13.80
2022-12-31T21:03:14.347Z,13.90
2022-12-31T21:05:51.813Z,13.90
2022-12-31T21:08:21.154Z,13.90
2022-12-31T21:10:48.646Z,13.90
2022-12-31T21:13:15.480Z,13.90
2022-12-31T21:15:42.320Z,13.90
2022-12-31T21:18:09.611Z,13.90
2022-12-31T21:20:36.367Z,13.90
2022-12-31T21:23:03.161Z,13.90
2022-12-31T21:25:29.924Z,13.90
2022-12-31T21:27:59.062Z,13.90
2022-12-31T21:30:25.800Z,14.00
2022-12-31T21:32:55.089Z,13.90
2022-12-31T21:38:08.966Z,13.90
2022-12-31T21:40:35.793Z,13.90
2022-12-31T21:43:02.629Z,13.90
2022-12-31T21:45:33.909Z,13.90
2022-12-31T21:48:19.545Z,13.90
2022-12-31T21:50:53.478Z,13.90
2022-12-31T21:53:26.245Z,13.90
2022-12-31T21:56:11.284Z,13.90
2022-12-31T21:59:11.871Z,14.00
2022-12-31T22:01:57.210Z,13.90
2022-12-31T22:05:00.518Z,13.90
2022-12-31T22:07:10.839Z,13.90
2022-12-31T22:09:39.836Z,13.90
2022-12-31T22:12:09.721Z,13.90
2022-12-31T22:14:36.522Z,13.90
2022-12-31T22:17:03.283Z,13.90
2022-12-31T22:19:30.043Z,13.90
2022-12-31T22:21:56.875Z,13.90
2022-12-31T22:24:23.654Z,13.90
2022-12-31T22:26:51.012Z,13.90
2022-12-31T22:29:19.284Z,13.90
2022-12-31T22:31:48.328Z,13.90
2022-12-31T22:34:15.159Z,13.90
2022-12-31T22:36:41.922Z,13.90
2022-12-31T22:39:13.629Z,13.90
2022-12-31T22:42:00.310Z,13.90
2022-12-31T22:44:27.087Z,13.90
2022-12-31T22:46:58.550Z,13.90
2022-12-31T22:49:25.854Z,14.00
2022-12-31T22:51:56.737Z,14.00
2022-12-31T22:54:32.805Z,14.00
2022-12-31T22:57:04.212Z,14.00
2022-12-31T22:59:30.994Z,14.00
2022-12-31T23:02:00.001Z,14.00
2022-12-31T23:04:26.961Z,14.00
2022-12-31T23:06:56.074Z,14.00
2022-12-31T23:09:43.789Z,14.00
2022-12-31T23:12:10.642Z,14.00
2022-12-31T23:14:56.311Z,13.90
2022-12-31T23:17:43.424Z,13.90
2022-12-31T23:20:39.397Z,13.90
2022-12-31T23:23:12.619Z,13.90
2022-12-31T23:25:40.611Z,13.90
2022-12-31T23:28:08.084Z,13.80
2022-12-31T23:30:37.023Z,13.80
2022-12-31T23:33:03.860Z,13.80
2022-12-31T23:35:33.256Z,13.80
2022-12-31T23:38:00.037Z,13.80
2022-12-31T23:40:34.458Z,13.80
2022-12-31T23:43:04.880Z,13.80
2022-12-31T23:45:33.402Z,13.80
2022-12-31T23:48:00.505Z,13.90
2022-12-31T23:50:27.376Z,13.80
2022-12-31T23:52:54.183Z,13.90
2022-12-31T23:55:20.960Z,13.80
2022-12-31T23:57:47.810Z,13.90
